sensor_id;sensor_type;location;lat;lon;timestamp;P1;durP1;ratioP1;P2;durP2;ratioP2
24644;SDS011;12780;45.502;9.146;2023-08-20T00:00:02;30.33;;;15.07;;
24644;SDS011;12780;45.502;9.146;2023-08-20T00:02:29;19.60;;;14.27;;
24644;SDS011;12780;45.502;9.146;2023-08-20T00:04:57;24.35;;;15.85;;
24644;SDS011;12780;45.502;9.146;2023-08-20T00:07:24;27.50;;;15.30;;
24644;SDS011;12780;45.502;9.146;2023-08-20T00:09:50;20.92;;;15.40;;
24644;SDS011;12780;45.502;9.146;2023-08-20T00:12:16;23.55;;;15.23;;
24644;SDS011;12780;45.502;9.146;2023-08-20T00:14:52;22.67;;;15.10;;
24644;SDS011;12780;45.502;9.146;2023-08-20T00:17:23;28.20;;;15.13;;
24644;SDS011;12780;45.502;9.146;2023-08-20T00:19:52;22.30;;;14.73;;
24644;SDS011;12780;45.502;9.146;2023-08-20T00:22:18;28.23;;;15.07;;
24644;SDS011;12780;45.502;9.146;2023-08-20T00:24:45;19.58;;;14.52;;
24644;SDS011;12780;45.502;9.146;2023-08-20T00:27:11;25.63;;;13.73;;
24644;SDS011;12780;45.502;9.146;2023-08-20T00:29:37;20.90;;;13.65;;
24644;SDS011;12780;45.502;9.146;2023-08-20T00:32:03;19.35;;;13.88;;
24644;SDS011;12780;45.502;9.146;2023-08-20T00:34:29;23.13;;;14.95;;
24644;SDS011;12780;45.502;9.146;2023-08-20T00:36:56;18.75;;;13.82;;
24644;SDS011;12780;45.502;9.146;2023-08-20T00:39:22;20.63;;;14.52;;
24644;SDS011;12780;45.502;9.146;2023-08-20T00:41:48;24.52;;;13.73;;
24644;SDS011;12780;45.502;9.146;2023-08-20T00:44:14;22.92;;;14.40;;
24644;SDS011;12780;45.502;9.146;2023-08-20T00:46:40;27.25;;;14.18;;
24644;SDS011;12780;45.502;9.146;2023-08-20T00:49:06;22.23;;;13.38;;
24644;SDS011;12780;45.502;9.146;2023-08-20T00:51:32;22.27;;;13.48;;
24644;SDS011;12780;45.502;9.146;2023-08-20T00:53:59;23.25;;;13.45;;
24644;SDS011;12780;45.502;9.146;2023-08-20T00:56:25;19.95;;;13.60;;
24644;SDS011;12780;45.502;9.146;2023-08-20T00:58:52;21.95;;;13.23;;
24644;SDS011;12780;45.502;9.146;2023-08-20T01:01:18;28.75;;;14.05;;
24644;SDS011;12780;45.502;9.146;2023-08-20T01:03:44;17.63;;;12.80;;
24644;SDS011;12780;45.502;9.146;2023-08-20T01:06:20;18.48;;;12.68;;
24644;SDS011;12780;45.502;9.146;2023-08-20T01:08:52;21.33;;;13.07;;
24644;SDS011;12780;45.502;9.146;2023-08-20T01:11:21;20.75;;;12.63;;
24644;SDS011;12780;45.502;9.146;2023-08-20T01:13:50;14.20;;;11.77;;
24644;SDS011;12780;45.502;9.146;2023-08-20T01:16:16;21.95;;;12.95;;
24644;SDS011;12780;45.502;9.146;2023-08-20T01:18:42;18.17;;;12.38;;
24644;SDS011;12780;45.502;9.146;2023-08-20T01:21:16;20.20;;;12.70;;
24644;SDS011;12780;45.502;9.146;2023-08-20T01:24:01;17.98;;;12.98;;
24644;SDS011;12780;45.502;9.146;2023-08-20T01:29:26;19.60;;;12.57;;
24644;SDS011;12780;45.502;9.146;2023-08-20T01:31:53;21.73;;;11.88;;
24644;SDS011;12780;45.502;9.146;2023-08-20T01:34:20;17.20;;;12.05;;
24644;SDS011;12780;45.502;9.146;2023-08-20T01:36:46;21.52;;;12.65;;
24644;SDS011;12780;45.502;9.146;2023-08-20T01:39:12;20.55;;;12.10;;
24644;SDS011;12780;45.502;9.146;2023-08-20T01:41:38;20.55;;;12.15;;
24644;SDS011;12780;45.502;9.146;2023-08-20T01:44:05;18.75;;;12.30;;
24644;SDS011;12780;45.502;9.146;2023-08-20T01:46:32;21.80;;;12.45;;
24644;SDS011;12780;45.502;9.146;2023-08-20T01:48:58;20.17;;;11.93;;
24644;SDS011;12780;45.502;9.146;2023-08-20T01:51:24;18.08;;;12.45;;
24644;SDS011;12780;45.502;9.146;2023-08-20T01:53:50;22.55;;;12.27;;
24644;SDS011;12780;45.502;9.146;2023-08-20T01:56:16;20.27;;;13.00;;
24644;SDS011;12780;45.502;9.146;2023-08-20T01:58:42;19.83;;;12.55;;
24644;SDS011;12780;45.502;9.146;2023-08-20T02:01:08;20.83;;;12.82;;
24644;SDS011;12780;45.502;9.146;2023-08-20T02:03:35;24.83;;;12.85;;
24644;SDS011;12780;45.502;9.146;2023-08-20T02:06:03;21.90;;;12.38;;
24644;SDS011;12780;45.502;9.146;2023-08-20T02:08:29;21.52;;;12.00;;
24644;SDS011;12780;45.502;9.146;2023-08-20T02:11:01;27.35;;;12.48;;
24644;SDS011;12780;45.502;9.146;2023-08-20T02:15:57;20.90;;;12.13;;
24644;SDS011;12780;45.502;9.146;2023-08-20T02:18:23;17.58;;;11.82;;
24644;SDS011;12780;45.502;9.146;2023-08-20T02:20:49;16.13;;;11.43;;
24644;SDS011;12780;45.502;9.146;2023-08-20T02:23:15;22.17;;;12.02;;
24644;SDS011;12780;45.502;9.146;2023-08-20T02:25:43;26.63;;;12.50;;
24644;SDS011;12780;45.502;9.146;2023-08-20T02:28:09;14.73;;;11.18;;
24644;SDS011;12780;45.502;9.146;2023-08-20T02:30:40;16.08;;;11.38;;
24644;SDS011;12780;45.502;9.146;2023-08-20T02:33:06;18.27;;;11.75;;
24644;SDS011;12780;45.502;9.146;2023-08-20T02:35:32;17.65;;;10.95;;
24644;SDS011;12780;45.502;9.146;2023-08-20T02:37:58;14.63;;;11.73;;
24644;SDS011;12780;45.502;9.146;2023-08-20T02:40:24;16.80;;;12.50;;
24644;SDS011;12780;45.502;9.146;2023-08-20T02:42:50;15.48;;;10.60;;
24644;SDS011;12780;45.502;9.146;2023-08-20T02:45:16;16.45;;;10.82;;
24644;SDS011;12780;45.502;9.146;2023-08-20T02:47:42;19.65;;;12.55;;
24644;SDS011;12780;45.502;9.146;2023-08-20T02:50:08;19.52;;;11.25;;
24644;SDS011;12780;45.502;9.146;2023-08-20T02:52:35;21.33;;;11.70;;
24644;SDS011;12780;45.502;9.146;2023-08-20T02:55:01;19.60;;;11.95;;
24644;SDS011;12780;45.502;9.146;2023-08-20T02:57:28;15.13;;;11.55;;
24644;SDS011;12780;45.502;9.146;2023-08-20T02:59:54;18.55;;;12.15;;
24644;SDS011;12780;45.502;9.146;2023-08-20T03:02:20;23.75;;;12.23;;
24644;SDS011;12780;45.502;9.146;2023-08-20T03:04:47;18.25;;;12.40;;
24644;SDS011;12780;45.502;9.146;2023-08-20T03:07:13;19.30;;;12.38;;
24644;SDS011;12780;45.502;9.146;2023-08-20T03:09:39;18.90;;;12.25;;
24644;SDS011;12780;45.502;9.146;2023-08-20T03:12:05;17.05;;;12.23;;
24644;SDS011;12780;45.502;9.146;2023-08-20T03:14:31;15.77;;;11.73;;
24644;SDS011;12780;45.502;9.146;2023-08-20T03:16:57;20.55;;;12.88;;
24644;SDS011;12780;45.502;9.146;2023-08-20T03:19:23;26.20;;;12.48;;
24644;SDS011;12780;45.502;9.146;2023-08-20T03:21:49;19.27;;;12.02;;
24644;SDS011;12780;45.502;9.146;2023-08-20T03:24:15;21.52;;;11.85;;
24644;SDS011;12780;45.502;9.146;2023-08-20T03:26:41;21.17;;;12.90;;
24644;SDS011;12780;45.502;9.146;2023-08-20T03:29:07;26.27;;;13.10;;
24644;SDS011;12780;45.502;9.146;2023-08-20T03:31:33;18.60;;;12.88;;
24644;SDS011;12780;45.502;9.146;2023-08-20T03:33:59;23.80;;;12.13;;
24644;SDS011;12780;45.502;9.146;2023-08-20T03:36:25;19.52;;;13.40;;
24644;SDS011;12780;45.502;9.146;2023-08-20T03:38:51;18.08;;;13.48;;
24644;SDS011;12780;45.502;9.146;2023-08-20T03:41:17;20.13;;;12.88;;
24644;SDS011;12780;45.502;9.146;2023-08-20T03:43:43;17.98;;;12.95;;
24644;SDS011;12780;45.502;9.146;2023-08-20T03:46:09;21.08;;;13.52;;
24644;SDS011;12780;45.502;9.146;2023-08-20T03:48:35;23.45;;;13.73;;
24644;SDS011;12780;45.502;9.146;2023-08-20T03:51:01;20.73;;;12.73;;
24644;SDS011;12780;45.502;9.146;2023-08-20T03:53:27;22.15;;;13.48;;
24644;SDS011;12780;45.502;9.146;2023-08-20T03:55:53;21.38;;;12.93;;
24644;SDS011;12780;45.502;9.146;2023-08-20T03:58:19;23.00;;;14.20;;
24644;SDS011;12780;45.502;9.146;2023-08-20T04:00:45;21.23;;;14.18;;
24644;SDS011;12780;45.502;9.146;2023-08-20T04:03:11;19.70;;;13.55;;
24644;SDS011;12780;45.502;9.146;2023-08-20T04:05:38;19.05;;;13.10;;
24644;SDS011;12780;45.502;9.146;2023-08-20T04:08:04;18.70;;;13.13;;
24644;SDS011;12780;45.502;9.146;2023-08-20T04:10:31;19.92;;;12.43;;
24644;SDS011;12780;45.502;9.146;2023-08-20T04:12:57;24.85;;;13.07;;
24644;SDS011;12780;45.502;9.146;2023-08-20T04:15:23;23.23;;;13.20;;
24644;SDS011;12780;45.502;9.146;2023-08-20T04:17:50;16.73;;;12.93;;
24644;SDS011;12780;45.502;9.146;2023-08-20T04:20:16;21.75;;;13.20;;
24644;SDS011;12780;45.502;9.146;2023-08-20T04:22:42;18.30;;;12.93;;
24644;SDS011;12780;45.502;9.146;2023-08-20T04:25:08;20.35;;;12.35;;
24644;SDS011;12780;45.502;9.146;2023-08-20T04:27:34;19.80;;;12.27;;
24644;SDS011;12780;45.502;9.146;2023-08-20T04:30:00;22.08;;;12.65;;
24644;SDS011;12780;45.502;9.146;2023-08-20T04:32:26;18.25;;;12.20;;
24644;SDS011;12780;45.502;9.146;2023-08-20T04:34:52;17.88;;;12.73;;
24644;SDS011;12780;45.502;9.146;2023-08-20T04:37:19;19.60;;;13.25;;
24644;SDS011;12780;45.502;9.146;2023-08-20T04:39:45;25.15;;;12.85;;
24644;SDS011;12780;45.502;9.146;2023-08-20T04:42:11;18.55;;;13.05;;
24644;SDS011;12780;45.502;9.146;2023-08-20T04:44:37;16.05;;;13.77;;
24644;SDS011;12780;45.502;9.146;2023-08-20T04:47:03;14.85;;;11.98;;
24644;SDS011;12780;45.502;9.146;2023-08-20T04:49:29;19.05;;;12.82;;
24644;SDS011;12780;45.502;9.146;2023-08-20T04:51:55;23.08;;;12.80;;
24644;SDS011;12780;45.502;9.146;2023-08-20T04:54:21;16.98;;;12.95;;
24644;SDS011;12780;45.502;9.146;2023-08-20T04:56:47;20.00;;;13.18;;
24644;SDS011;12780;45.502;9.146;2023-08-20T04:59:13;22.50;;;13.27;;
24644;SDS011;12780;45.502;9.146;2023-08-20T05:01:40;20.60;;;13.27;;
24644;SDS011;12780;45.502;9.146;2023-08-20T05:04:06;23.02;;;12.73;;
24644;SDS011;12780;45.502;9.146;2023-08-20T05:06:32;16.98;;;12.85;;
24644;SDS011;12780;45.502;9.146;2023-08-20T05:08:58;17.88;;;13.63;;
24644;SDS011;12780;45.502;9.146;2023-08-20T05:11:24;20.13;;;13.55;;
24644;SDS011;12780;45.502;9.146;2023-08-20T05:13:50;22.30;;;13.80;;
24644;SDS011;12780;45.502;9.146;2023-08-20T05:16:16;18.88;;;13.38;;
24644;SDS011;12780;45.502;9.146;2023-08-20T05:18:42;14.60;;;12.98;;
24644;SDS011;12780;45.502;9.146;2023-08-20T05:21:08;20.08;;;13.27;;
24644;SDS011;12780;45.502;9.146;2023-08-20T05:23:36;24.60;;;14.48;;
24644;SDS011;12780;45.502;9.146;2023-08-20T05:26:02;21.80;;;14.27;;
24644;SDS011;12780;45.502;9.146;2023-08-20T05:28:28;23.02;;;14.63;;
24644;SDS011;12780;45.502;9.146;2023-08-20T05:30:57;16.67;;;12.70;;
24644;SDS011;12780;45.502;9.146;2023-08-20T05:33:24;23.50;;;14.52;;
24644;SDS011;12780;45.502;9.146;2023-08-20T05:35:50;21.10;;;13.57;;
24644;SDS011;12780;45.502;9.146;2023-08-20T05:38:16;23.10;;;13.63;;
24644;SDS011;12780;45.502;9.146;2023-08-20T05:40:42;18.38;;;13.70;;
24644;SDS011;12780;45.502;9.146;2023-08-20T05:43:08;19.80;;;14.35;;
24644;SDS011;12780;45.502;9.146;2023-08-20T05:45:34;23.30;;;13.45;;
24644;SDS011;12780;45.502;9.146;2023-08-20T05:48:01;23.35;;;13.55;;
24644;SDS011;12780;45.502;9.146;2023-08-20T05:50:27;20.25;;;13.00;;
24644;SDS011;12780;45.502;9.146;2023-08-20T05:52:53;21.17;;;13.43;;
24644;SDS011;12780;45.502;9.146;2023-08-20T05:55:19;22.20;;;13.68;;
24644;SDS011;12780;45.502;9.146;2023-08-20T05:57:45;18.25;;;13.38;;
24644;SDS011;12780;45.502;9.146;2023-08-20T06:00:11;20.92;;;13.43;;
24644;SDS011;12780;45.502;9.146;2023-08-20T06:02:37;21.38;;;13.45;;
24644;SDS011;12780;45.502;9.146;2023-08-20T06:05:03;23.73;;;13.43;;
24644;SDS011;12780;45.502;9.146;2023-08-20T06:07:32;16.65;;;12.25;;
24644;SDS011;12780;45.502;9.146;2023-08-20T06:09:58;19.90;;;12.57;;
24644;SDS011;12780;45.502;9.146;2023-08-20T06:12:24;20.20;;;12.32;;
24644;SDS011;12780;45.502;9.146;2023-08-20T06:14:50;16.00;;;13.05;;
24644;SDS011;12780;45.502;9.146;2023-08-20T06:17:17;15.38;;;12.07;;
24644;SDS011;12780;45.502;9.146;2023-08-20T06:19:43;20.98;;;12.45;;
24644;SDS011;12780;45.502;9.146;2023-08-20T06:22:10;14.90;;;11.98;;
24644;SDS011;12780;45.502;9.146;2023-08-20T06:24:36;18.70;;;11.98;;
24644;SDS011;12780;45.502;9.146;2023-08-20T06:27:02;22.48;;;13.18;;
24644;SDS011;12780;45.502;9.146;2023-08-20T06:29:28;17.58;;;11.82;;
24644;SDS011;12780;45.502;9.146;2023-08-20T06:31:54;21.42;;;12.48;;
24644;SDS011;12780;45.502;9.146;2023-08-20T06:34:20;21.98;;;12.50;;
24644;SDS011;12780;45.502;9.146;2023-08-20T06:36:47;15.75;;;11.80;;
24644;SDS011;12780;45.502;9.146;2023-08-20T06:39:13;19.15;;;11.48;;
24644;SDS011;12780;45.502;9.146;2023-08-20T06:41:40;14.48;;;11.50;;
24644;SDS011;12780;45.502;9.146;2023-08-20T06:44:06;18.23;;;11.82;;
24644;SDS011;12780;45.502;9.146;2023-08-20T06:46:32;18.25;;;11.38;;
24644;SDS011;12780;45.502;9.146;2023-08-20T06:48:58;16.73;;;10.88;;
24644;SDS011;12780;45.502;9.146;2023-08-20T06:51:24;16.65;;;11.50;;
24644;SDS011;12780;45.502;9.146;2023-08-20T06:53:52;15.32;;;10.93;;
24644;SDS011;12780;45.502;9.146;2023-08-20T06:56:19;21.02;;;10.95;;
24644;SDS011;12780;45.502;9.146;2023-08-20T06:58:45;23.00;;;11.18;;
24644;SDS011;12780;45.502;9.146;2023-08-20T07:01:12;14.77;;;9.73;;
24644;SDS011;12780;45.502;9.146;2023-08-20T07:03:41;14.02;;;9.70;;
24644;SDS011;12780;45.502;9.146;2023-08-20T07:06:08;15.73;;;10.10;;
24644;SDS011;12780;45.502;9.146;2023-08-20T07:08:35;14.95;;;10.02;;
24644;SDS011;12780;45.502;9.146;2023-08-20T07:11:01;14.35;;;10.15;;
24644;SDS011;12780;45.502;9.146;2023-08-20T07:13:27;16.77;;;10.07;;
24644;SDS011;12780;45.502;9.146;2023-08-20T07:15:53;17.63;;;9.68;;
24644;SDS011;12780;45.502;9.146;2023-08-20T07:18:20;15.00;;;9.77;;
24644;SDS011;12780;45.502;9.146;2023-08-20T07:20:46;15.45;;;10.05;;
24644;SDS011;12780;45.502;9.146;2023-08-20T07:23:12;15.95;;;9.48;;
24644;SDS011;12780;45.502;9.146;2023-08-20T07:25:38;14.35;;;10.30;;
24644;SDS011;12780;45.502;9.146;2023-08-20T07:28:05;13.48;;;9.43;;
24644;SDS011;12780;45.502;9.146;2023-08-20T07:30:31;17.60;;;9.38;;
24644;SDS011;12780;45.502;9.146;2023-08-20T07:32:57;13.48;;;9.88;;
24644;SDS011;12780;45.502;9.146;2023-08-20T07:35:24;16.05;;;9.35;;
24644;SDS011;12780;45.502;9.146;2023-08-20T07:37:50;10.95;;;8.27;;
24644;SDS011;12780;45.502;9.146;2023-08-20T07:40:16;15.93;;;9.60;;
24644;SDS011;12780;45.502;9.146;2023-08-20T07:42:43;12.25;;;8.45;;
24644;SDS011;12780;45.502;9.146;2023-08-20T07:45:09;13.48;;;8.27;;
24644;SDS011;12780;45.502;9.146;2023-08-20T07:47:35;17.40;;;8.70;;
24644;SDS011;12780;45.502;9.146;2023-08-20T07:50:02;12.75;;;8.68;;
24644;SDS011;12780;45.502;9.146;2023-08-20T07:52:28;14.75;;;8.45;;
24644;SDS011;12780;45.502;9.146;2023-08-20T07:54:54;14.80;;;8.68;;
24644;SDS011;12780;45.502;9.146;2023-08-20T07:57:20;14.77;;;8.55;;
24644;SDS011;12780;45.502;9.146;2023-08-20T07:59:46;9.55;;;8.07;;
24644;SDS011;12780;45.502;9.146;2023-08-20T08:02:12;14.98;;;7.93;;
24644;SDS011;12780;45.502;9.146;2023-08-20T08:04:38;14.57;;;8.75;;
24644;SDS011;12780;45.502;9.146;2023-08-20T08:07:04;12.32;;;8.48;;
24644;SDS011;12780;45.502;9.146;2023-08-20T08:09:31;12.18;;;7.85;;
24644;SDS011;12780;45.502;9.146;2023-08-20T08:11:57;11.95;;;8.15;;
24644;SDS011;12780;45.502;9.146;2023-08-20T08:14:23;13.50;;;8.55;;
24644;SDS011;12780;45.502;9.146;2023-08-20T08:16:49;13.63;;;7.40;;
24644;SDS011;12780;45.502;9.146;2023-08-20T08:19:16;13.77;;;8.45;;
24644;SDS011;12780;45.502;9.146;2023-08-20T08:21:42;12.95;;;8.43;;
24644;SDS011;12780;45.502;9.146;2023-08-20T08:24:09;13.07;;;8.27;;
24644;SDS011;12780;45.502;9.146;2023-08-20T08:26:35;10.90;;;8.02;;
24644;SDS011;12780;45.502;9.146;2023-08-20T08:29:02;12.70;;;7.85;;
24644;SDS011;12780;45.502;9.146;2023-08-20T08:31:28;10.93;;;8.27;;
24644;SDS011;12780;45.502;9.146;2023-08-20T08:33:54;13.68;;;8.57;;
24644;SDS011;12780;45.502;9.146;2023-08-20T08:36:20;12.38;;;8.70;;
24644;SDS011;12780;45.502;9.146;2023-08-20T08:38:46;14.20;;;8.48;;
24644;SDS011;12780;45.502;9.146;2023-08-20T08:41:13;11.68;;;8.45;;
24644;SDS011;12780;45.502;9.146;2023-08-20T08:43:39;14.00;;;8.20;;
24644;SDS011;12780;45.502;9.146;2023-08-20T08:46:23;10.07;;;8.10;;
24644;SDS011;12780;45.502;9.146;2023-08-20T08:48:49;13.57;;;9.35;;
24644;SDS011;12780;45.502;9.146;2023-08-20T08:51:16;9.82;;;7.85;;
24644;SDS011;12780;45.502;9.146;2023-08-20T08:53:43;12.40;;;8.00;;
24644;SDS011;12780;45.502;9.146;2023-08-20T08:56:10;13.18;;;8.70;;
24644;SDS011;12780;45.502;9.146;2023-08-20T08:58:36;15.23;;;8.00;;
24644;SDS011;12780;45.502;9.146;2023-08-20T09:01:02;23.27;;;8.05;;
24644;SDS011;12780;45.502;9.146;2023-08-20T09:03:28;12.00;;;8.45;;
24644;SDS011;12780;45.502;9.146;2023-08-20T09:05:55;15.23;;;8.50;;
24644;SDS011;12780;45.502;9.146;2023-08-20T09:08:28;14.65;;;8.40;;
24644;SDS011;12780;45.502;9.146;2023-08-20T09:13:24;13.13;;;8.05;;
24644;SDS011;12780;45.502;9.146;2023-08-20T09:15:54;12.40;;;8.38;;
24644;SDS011;12780;45.502;9.146;2023-08-20T09:18:20;10.52;;;7.97;;
24644;SDS011;12780;45.502;9.146;2023-08-20T09:20:49;17.60;;;7.78;;
24644;SDS011;12780;45.502;9.146;2023-08-20T09:23:16;17.02;;;7.85;;
24644;SDS011;12780;45.502;9.146;2023-08-20T09:25:42;9.95;;;7.50;;
24644;SDS011;12780;45.502;9.146;2023-08-20T09:28:09;10.02;;;7.57;;
24644;SDS011;12780;45.502;9.146;2023-08-20T09:30:35;12.45;;;7.97;;
24644;SDS011;12780;45.502;9.146;2023-08-20T09:35:30;10.07;;;7.40;;
24644;SDS011;12780;45.502;9.146;2023-08-20T09:37:59;11.13;;;7.63;;
24644;SDS011;12780;45.502;9.146;2023-08-20T09:40:26;9.40;;;7.97;;
24644;SDS011;12780;45.502;9.146;2023-08-20T09:42:53;10.35;;;7.72;;
24644;SDS011;12780;45.502;9.146;2023-08-20T09:45:20;10.75;;;8.52;;
24644;SDS011;12780;45.502;9.146;2023-08-20T09:47:47;12.27;;;7.78;;
24644;SDS011;12780;45.502;9.146;2023-08-20T09:50:14;12.68;;;8.20;;
24644;SDS011;12780;45.502;9.146;2023-08-20T09:52:59;15.50;;;8.52;;
24644;SDS011;12780;45.502;9.146;2023-08-20T09:55:30;15.38;;;8.05;;
24644;SDS011;12780;45.502;9.146;2023-08-20T09:58:01;10.32;;;7.78;;
24644;SDS011;12780;45.502;9.146;2023-08-20T10:00:28;13.43;;;9.07;;
24644;SDS011;12780;45.502;9.146;2023-08-20T10:02:54;18.70;;;8.52;;
24644;SDS011;12780;45.502;9.146;2023-08-20T10:05:21;14.95;;;8.40;;
24644;SDS011;12780;45.502;9.146;2023-08-20T10:07:48;10.93;;;8.68;;
24644;SDS011;12780;45.502;9.146;2023-08-20T10:10:14;14.80;;;8.18;;
24644;SDS011;12780;45.502;9.146;2023-08-20T10:12:42;15.82;;;8.55;;
24644;SDS011;12780;45.502;9.146;2023-08-20T10:15:13;10.35;;;8.35;;
24644;SDS011;12780;45.502;9.146;2023-08-20T10:17:40;11.32;;;8.20;;
24644;SDS011;12780;45.502;9.146;2023-08-20T10:20:07;11.13;;;8.48;;
24644;SDS011;12780;45.502;9.146;2023-08-20T10:22:37;13.98;;;8.30;;
24644;SDS011;12780;45.502;9.146;2023-08-20T10:25:06;17.80;;;9.32;;
24644;SDS011;12780;45.502;9.146;2023-08-20T10:27:34;10.43;;;8.02;;
24644;SDS011;12780;45.502;9.146;2023-08-20T10:30:01;13.73;;;9.02;;
24644;SDS011;12780;45.502;9.146;2023-08-20T10:35:12;19.63;;;9.13;;
24644;SDS011;12780;45.502;9.146;2023-08-20T10:37:39;10.88;;;9.20;;
24644;SDS011;12780;45.502;9.146;2023-08-20T10:40:05;13.40;;;9.38;;
24644;SDS011;12780;45.502;9.146;2023-08-20T10:42:32;15.73;;;9.27;;
24644;SDS011;12780;45.502;9.146;2023-08-20T10:45:08;14.32;;;9.05;;
24644;SDS011;12780;45.502;9.146;2023-08-20T10:47:35;14.30;;;8.93;;
24644;SDS011;12780;45.502;9.146;2023-08-20T10:50:01;14.50;;;8.93;;
24644;SDS011;12780;45.502;9.146;2023-08-20T10:52:27;13.15;;;9.30;;
24644;SDS011;12780;45.502;9.146;2023-08-20T10:54:55;11.18;;;8.82;;
24644;SDS011;12780;45.502;9.146;2023-08-20T10:57:21;14.43;;;8.93;;
24644;SDS011;12780;45.502;9.146;2023-08-20T10:59:59;10.27;;;8.55;;
24644;SDS011;12780;45.502;9.146;2023-08-20T11:02:29;12.07;;;9.23;;
24644;SDS011;12780;45.502;9.146;2023-08-20T11:04:55;13.35;;;9.55;;
24644;SDS011;12780;45.502;9.146;2023-08-20T11:07:21;16.83;;;9.10;;
24644;SDS011;12780;45.502;9.146;2023-08-20T11:09:48;14.65;;;8.85;;
24644;SDS011;12780;45.502;9.146;2023-08-20T11:12:16;11.90;;;7.80;;
24644;SDS011;12780;45.502;9.146;2023-08-20T11:14:42;11.70;;;9.00;;
24644;SDS011;12780;45.502;9.146;2023-08-20T11:17:08;11.60;;;8.98;;
24644;SDS011;12780;45.502;9.146;2023-08-20T11:19:34;14.02;;;8.85;;
24644;SDS011;12780;45.502;9.146;2023-08-20T11:22:01;12.57;;;9.02;;
24644;SDS011;12780;45.502;9.146;2023-08-20T11:24:30;13.00;;;8.73;;
24644;SDS011;12780;45.502;9.146;2023-08-20T11:26:57;13.07;;;8.43;;
24644;SDS011;12780;45.502;9.146;2023-08-20T11:29:25;10.45;;;9.07;;
24644;SDS011;12780;45.502;9.146;2023-08-20T11:31:51;14.60;;;8.90;;
24644;SDS011;12780;45.502;9.146;2023-08-20T11:34:18;14.48;;;8.88;;
24644;SDS011;12780;45.502;9.146;2023-08-20T11:36:44;14.27;;;9.15;;
24644;SDS011;12780;45.502;9.146;2023-08-20T11:39:10;10.90;;;8.65;;
24644;SDS011;12780;45.502;9.146;2023-08-20T11:41:37;16.17;;;8.60;;
24644;SDS011;12780;45.502;9.146;2023-08-20T11:44:03;12.25;;;8.85;;
24644;SDS011;12780;45.502;9.146;2023-08-20T11:46:29;13.32;;;8.80;;
24644;SDS011;12780;45.502;9.146;2023-08-20T11:53:54;14.43;;;8.18;;
24644;SDS011;12780;45.502;9.146;2023-08-20T11:56:20;10.93;;;9.10;;
24644;SDS011;12780;45.502;9.146;2023-08-20T11:58:50;13.55;;;9.02;;
24644;SDS011;12780;45.502;9.146;2023-08-20T12:01:17;10.27;;;8.55;;
24644;SDS011;12780;45.502;9.146;2023-08-20T12:03:44;11.70;;;8.98;;
24644;SDS011;12780;45.502;9.146;2023-08-20T12:06:19;11.35;;;8.75;;
24644;SDS011;12780;45.502;9.146;2023-08-20T12:08:46;15.05;;;8.70;;
24644;SDS011;12780;45.502;9.146;2023-08-20T12:11:12;13.20;;;8.35;;
24644;SDS011;12780;45.502;9.146;2023-08-20T12:13:38;12.90;;;9.13;;
24644;SDS011;12780;45.502;9.146;2023-08-20T12:16:04;17.00;;;9.05;;
24644;SDS011;12780;45.502;9.146;2023-08-20T12:18:30;11.38;;;8.10;;
24644;SDS011;12780;45.502;9.146;2023-08-20T12:20:56;15.02;;;8.57;;
24644;SDS011;12780;45.502;9.146;2023-08-20T12:23:22;13.35;;;8.43;;
24644;SDS011;12780;45.502;9.146;2023-08-20T12:25:51;18.83;;;8.98;;
24644;SDS011;12780;45.502;9.146;2023-08-20T12:28:18;15.52;;;8.95;;
24644;SDS011;12780;45.502;9.146;2023-08-20T12:30:44;12.75;;;9.32;;
24644;SDS011;12780;45.502;9.146;2023-08-20T12:33:11;10.35;;;8.55;;
24644;SDS011;12780;45.502;9.146;2023-08-20T12:35:37;13.07;;;9.20;;
24644;SDS011;12780;45.502;9.146;2023-08-20T12:38:03;11.60;;;8.80;;
24644;SDS011;12780;45.502;9.146;2023-08-20T12:40:30;12.30;;;9.50;;
24644;SDS011;12780;45.502;9.146;2023-08-20T12:42:56;17.73;;;8.65;;
24644;SDS011;12780;45.502;9.146;2023-08-20T12:45:22;14.57;;;9.18;;
24644;SDS011;12780;45.502;9.146;2023-08-20T12:47:48;16.92;;;8.93;;
24644;SDS011;12780;45.502;9.146;2023-08-20T12:50:14;11.88;;;9.02;;
24644;SDS011;12780;45.502;9.146;2023-08-20T12:52:40;15.60;;;9.60;;
24644;SDS011;12780;45.502;9.146;2023-08-20T12:55:08;15.63;;;9.68;;
24644;SDS011;12780;45.502;9.146;2023-08-20T12:57:34;10.90;;;9.35;;
24644;SDS011;12780;45.502;9.146;2023-08-20T13:00:03;11.05;;;8.88;;
24644;SDS011;12780;45.502;9.146;2023-08-20T13:02:36;15.05;;;9.27;;
24644;SDS011;12780;45.502;9.146;2023-08-20T13:05:02;12.82;;;8.85;;
24644;SDS011;12780;45.502;9.146;2023-08-20T13:07:30;14.30;;;9.25;;
24644;SDS011;12780;45.502;9.146;2023-08-20T13:09:56;11.90;;;9.57;;
24644;SDS011;12780;45.502;9.146;2023-08-20T13:12:22;15.68;;;8.68;;
24644;SDS011;12780;45.502;9.146;2023-08-20T13:14:49;25.58;;;18.98;;
24644;SDS011;12780;45.502;9.146;2023-08-20T13:17:15;21.20;;;16.50;;
24644;SDS011;12780;45.502;9.146;2023-08-20T13:19:41;33.28;;;22.40;;
24644;SDS011;12780;45.502;9.146;2023-08-20T13:22:07;27.02;;;17.45;;
24644;SDS011;12780;45.502;9.146;2023-08-20T13:24:33;14.60;;;10.07;;
24644;SDS011;12780;45.502;9.146;2023-08-20T13:26:59;13.38;;;10.93;;
24644;SDS011;12780;45.502;9.146;2023-08-20T13:29:25;14.02;;;10.07;;
24644;SDS011;12780;45.502;9.146;2023-08-20T13:31:52;10.65;;;9.10;;
24644;SDS011;12780;45.502;9.146;2023-08-20T13:34:18;13.40;;;9.50;;
24644;SDS011;12780;45.502;9.146;2023-08-20T13:36:44;13.13;;;10.15;;
24644;SDS011;12780;45.502;9.146;2023-08-20T13:39:11;12.63;;;9.82;;
24644;SDS011;12780;45.502;9.146;2023-08-20T13:41:38;16.00;;;9.82;;
24644;SDS011;12780;45.502;9.146;2023-08-20T13:44:05;14.23;;;9.68;;
24644;SDS011;12780;45.502;9.146;2023-08-20T13:46:31;15.77;;;9.80;;
24644;SDS011;12780;45.502;9.146;2023-08-20T13:48:57;15.07;;;9.57;;
24644;SDS011;12780;45.502;9.146;2023-08-20T13:51:23;13.93;;;9.20;;
24644;SDS011;12780;45.502;9.146;2023-08-20T13:53:50;12.98;;;9.68;;
24644;SDS011;12780;45.502;9.146;2023-08-20T13:56:16;21.38;;;10.85;;
24644;SDS011;12780;45.502;9.146;2023-08-20T13:58:42;14.32;;;9.82;;
24644;SDS011;12780;45.502;9.146;2023-08-20T14:01:08;17.80;;;10.07;;
24644;SDS011;12780;45.502;9.146;2023-08-20T14:03:34;12.85;;;10.18;;
24644;SDS011;12780;45.502;9.146;2023-08-20T14:06:00;15.10;;;10.23;;
24644;SDS011;12780;45.502;9.146;2023-08-20T14:08:26;17.70;;;9.95;;
24644;SDS011;12780;45.502;9.146;2023-08-20T14:10:52;22.25;;;9.38;;
24644;SDS011;12780;45.502;9.146;2023-08-20T14:13:18;15.05;;;9.77;;
24644;SDS011;12780;45.502;9.146;2023-08-20T14:15:44;14.75;;;9.23;;
24644;SDS011;12780;45.502;9.146;2023-08-20T14:18:10;15.02;;;9.63;;
24644;SDS011;12780;45.502;9.146;2023-08-20T14:20:36;12.35;;;8.98;;
24644;SDS011;12780;45.502;9.146;2023-08-20T14:23:02;15.15;;;9.40;;
24644;SDS011;12780;45.502;9.146;2023-08-20T14:25:28;11.75;;;8.85;;
24644;SDS011;12780;45.502;9.146;2023-08-20T14:27:54;17.55;;;10.02;;
24644;SDS011;12780;45.502;9.146;2023-08-20T14:30:20;16.05;;;9.38;;
24644;SDS011;12780;45.502;9.146;2023-08-20T14:32:46;13.07;;;9.43;;
24644;SDS011;12780;45.502;9.146;2023-08-20T14:35:13;16.92;;;10.02;;
24644;SDS011;12780;45.502;9.146;2023-08-20T14:37:39;16.10;;;8.65;;
24644;SDS011;12780;45.502;9.146;2023-08-20T14:40:05;12.13;;;9.57;;
24644;SDS011;12780;45.502;9.146;2023-08-20T14:42:32;13.45;;;9.85;;